Time;durP1;ratioP1;P1;durP2;ratioP2;P2;SDS_P1;SDS_P2;PMS_P1;PMS_P2;Temp;Humidity;BMP_temperature;BMP_pressure;BME280_temperature;BME280_humidity;BME280_pressure;Samples;Min_cycle;Max_cycle;Signal;HPM_P1;HPM_P2
2023/06/15 00:03:17;;;;;;;3.38;2.10;;;22.70;62.50;;;;;;10441505;28;20408;-69
2023/06/15 00:08:17;;;;;;;3.00;2.20;;;22.60;62.60;;;;;;10450712;28;20024;-69
2023/06/15 00:13:18;;;;;;;4.70;2.08;;;22.60;62.60;;;;;;10445596;28;20033;-70
2023/06/15 00:18:19;;;;;;;3.65;1.90;;;22.60;62.70;;;;;;10449803;28;20013;-69
2023/06/15 00:23:26;;;;;;;3.00;1.85;;;22.60;62.70;;;;;;10452971;28;20029;-70
2023/06/15 00:28:27;;;;;;;2.65;1.70;;;22.50;62.80;;;;;;10455143;28;20104;-69
2023/06/15 00:33:27;;;;;;;2.88;1.90;;;22.50;62.80;;;;;;10442836;28;20377;-69
2023/06/15 00:38:28;;;;;;;2.38;1.67;;;22.40;62.80;;;;;;10439768;28;20017;-69
2023/06/15 00:43:28;;;;;;;2.47;2.00;;;22.40;62.90;;;;;;10443252;28;20043;-69
2023/06/15 00:48:30;;;;;;;5.90;2.13;;;22.40;63.00;;;;;;10437448;28;20025;-68
2023/06/15 00:53:32;;;;;;;3.17;1.85;;;22.30;63.00;;;;;;10438965;28;20021;-69
2023/06/15 00:58:32;;;;;;;3.35;2.00;;;22.20;63.00;;;;;;10450263;28;20130;-69
2023/06/15 01:03:35;;;;;;;3.67;2.00;;;22.30;63.20;;;;;;10442182;28;20324;-69
2023/06/15 01:08:37;;;;;;;2.53;2.08;;;22.20;63.20;;;;;;10444751;28;20025;-69
2023/06/15 01:13:38;;;;;;;2.60;2.13;;;22.20;63.30;;;;;;10448151;28;20474;-69
2023/06/15 01:18:46;;;;;;;3.22;2.20;;;22.20;63.40;;;;;;10441629;28;20477;-69
2023/06/15 01:24:10;;;;;;;3.47;2.45;;;22.20;63.50;;;;;;10442120;28;20377;-69
2023/06/15 01:29:11;;;;;;;3.47;2.72;;;22.10;63.70;;;;;;10442583;28;20024;-69
2023/06/15 01:34:11;;;;;;;5.10;2.50;;;22.10;63.60;;;;;;10453360;28;20016;-69
2023/06/15 01:39:12;;;;;;;6.20;2.35;;;22.10;63.70;;;;;;10447431;28;20317;-69
2023/06/15 01:44:13;;;;;;;3.78;2.35;;;22.00;63.80;;;;;;10447065;28;20048;-69
2023/06/15 01:49:14;;;;;;;4.20;2.63;;;22.00;63.90;;;;;;10447826;28;20111;-69
2023/06/15 01:54:15;;;;;;;2.95;2.30;;;22.00;64.00;;;;;;10455451;28;20077;-69
2023/06/15 01:59:15;;;;;;;3.22;2.50;;;21.90;64.00;;;;;;10452375;28;20017;-69
2023/06/15 02:04:16;;;;;;;4.88;2.50;;;21.90;64.10;;;;;;10440262;28;20027;-69
2023/06/15 02:09:17;;;;;;;3.20;2.38;;;21.90;64.20;;;;;;10452872;28;20032;-69
2023/06/15 02:14:17;;;;;;;3.67;2.40;;;21.80;64.20;;;;;;10462774;28;20028;-69
2023/06/15 02:19:21;;;;;;;3.90;2.58;;;21.80;64.30;;;;;;10450586;28;20020;-69
2023/06/15 02:24:21;;;;;;;4.00;2.72;;;21.80;64.30;;;;;;10447090;28;20032;-69
2023/06/15 02:29:22;;;;;;;4.15;2.67;;;21.80;64.40;;;;;;10457466;28;20572;-69
2023/06/15 02:34:24;;;;;;;3.80;2.70;;;21.70;64.40;;;;;;10450429;28;20512;-69
2023/06/15 02:39:25;;;;;;;3.42;2.60;;;21.70;64.50;;;;;;10457243;28;20021;-69
2023/06/15 02:44:30;;;;;;;2.83;2.10;;;21.70;64.50;;;;;;10454324;28;20029;-69
2023/06/15 02:49:31;;;;;;;2.42;2.20;;;21.70;65.20;;;;;;10458915;28;20416;-69
2023/06/15 02:54:31;;;;;;;4.07;2.72;;;21.50;64.50;;;;;;10447793;28;20390;-69
2023/06/15 02:59:33;;;;;;;3.80;2.50;;;21.60;64.70;;;;;;10446871;28;20521;-69
2023/06/15 03:04:43;;;;;;;4.65;2.42;;;21.60;64.70;;;;;;10451086;28;20079;-69
2023/06/15 03:09:49;;;;;;;4.05;2.60;;;21.50;64.70;;;;;;10450577;28;20034;-69
2023/06/15 03:14:52;;;;;;;4.10;2.47;;;21.50;64.80;;;;;;10441352;28;20134;-69
2023/06/15 03:19:53;;;;;;;3.90;2.50;;;21.50;64.80;;;;;;10445956;28;20017;-69
2023/06/15 03:24:54;;;;;;;4.30;2.60;;;21.50;64.80;;;;;;10443514;28;20059;-69
2023/06/15 03:29:56;;;;;;;3.53;2.50;;;21.40;64.80;;;;;;10444634;28;20035;-69
2023/06/15 03:34:57;;;;;;;4.53;2.67;;;21.40;64.80;;;;;;10449519;28;20017;-69
2023/06/15 03:39:58;;;;;;;4.32;2.72;;;21.40;64.90;;;;;;10452500;28;20029;-69
2023/06/15 03:44:58;;;;;;;3.47;3.15;;;21.30;64.90;;;;;;10448899;28;20029;-69
2023/06/15 03:49:59;;;;;;;3.70;2.33;;;21.40;65.00;;;;;;10450930;28;20021;-69
2023/06/15 03:55:00;;;;;;;3.40;2.42;;;21.30;65.00;;;;;;10443117;28;20029;-69
2023/06/15 04:00:00;;;;;;;4.43;2.40;;;21.20;65.00;;;;;;10450516;28;20060;-69
2023/06/15 04:05:02;;;;;;;4.35;2.75;;;21.20;65.00;;;;;;10450999;28;20397;-69
2023/06/15 04:10:05;;;;;;;4.00;2.70;;;21.20;65.00;;;;;;10447224;28;20017;-69
2023/06/15 04:15:06;;;;;;;4.82;2.72;;;21.20;65.10;;;;;;10452167;28;20039;-69
2023/06/15 04:20:08;;;;;;;3.17;2.35;;;21.20;65.20;;;;;;10458156;28;20070;-69
2023/06/15 04:25:09;;;;;;;6.22;2.75;;;21.20;65.10;;;;;;10449572;28;20130;-69
2023/06/15 04:30:10;;;;;;;2.90;2.40;;;21.10;65.10;;;;;;10452469;28;20104;-69
2023/06/15 04:35:16;;;;;;;5.05;2.40;;;21.10;65.20;;;;;;10440198;28;20024;-69
2023/06/15 04:40:20;;;;;;;2.65;2.30;;;21.10;65.20;;;;;;10449298;28;20017;-69
2023/06/15 04:45:20;;;;;;;3.40;2.60;;;21.00;65.10;;;;;;10445127;28;20092;-69
2023/06/15 04:50:21;;;;;;;4.65;2.50;;;21.10;65.20;;;;;;10450013;28;20017;-69
2023/06/15 04:55:22;;;;;;;3.78;2.50;;;21.00;65.20;;;;;;10445459;28;20155;-69
2023/06/15 05:00:23;;;;;;;3.65;2.67;;;21.00;65.20;;;;;;10459906;28;20408;-69
2023/06/15 05:05:23;;;;;;;4.32;2.75;;;21.00;65.40;;;;;;10452468;28;20405;-68
2023/06/15 05:10:24;;;;;;;3.15;2.47;;;20.90;65.50;;;;;;10442466;28;20271;-69
2023/06/15 05:15:25;;;;;;;4.43;2.28;;;20.90;65.50;;;;;;10449317;28;20021;-69
2023/06/15 05:20:25;;;;;;;4.88;2.90;;;20.90;65.40;;;;;;10443235;28;20017;-69
2023/06/15 05:25:26;;;;;;;3.40;2.10;;;20.90;65.40;;;;;;10451140;28;20512;-69
2023/06/15 05:30:26;;;;;;;3.78;2.55;;;20.90;65.40;;;;;;10462851;28;20048;-69
2023/06/15 05:35:27;;;;;;;3.90;2.47;;;20.90;65.40;;;;;;10449392;28;20032;-69
2023/06/15 05:40:28;;;;;;;5.28;2.30;;;20.90;65.40;;;;;;10442241;28;20010;-69
2023/06/15 05:45:30;;;;;;;3.00;2.22;;;20.90;65.30;;;;;;10440480;28;20027;-69
2023/06/15 05:50:31;;;;;;;3.00;2.20;;;20.90;65.30;;;;;;10433387;28;20068;-69
2023/06/15 05:55:33;;;;;;;7.65;2.60;;;20.90;65.30;;;;;;10449128;28;20033;-69
2023/06/15 06:00:33;;;;;;;3.92;2.22;;;20.90;65.20;;;;;;10445683;28;20074;-69
2023/06/15 06:05:34;;;;;;;3.05;2.20;;;20.90;65.20;;;;;;10430246;28;20616;-74
2023/06/15 06:10:34;;;;;;;4.65;3.28;;;20.90;65.30;;;;;;10448043;28;20511;-72
2023/06/15 06:15:35;;;;;;;4.85;3.40;;;20.60;66.40;;;;;;10435114;28;20393;-72
2023/06/15 06:20:36;;;;;;;5.45;3.13;;;20.20;67.50;;;;;;10433201;28;20021;-72
2023/06/15 06:25:36;;;;;;;4.65;2.97;;;20.00;68.30;;;;;;10434476;28;20061;-72
2023/06/15 06:30:38;;;;;;;7.00;3.05;;;19.80;68.80;;;;;;10449802;28;20019;-73
2023/06/15 06:35:38;;;;;;;5.20;2.78;;;19.70;68.70;;;;;;10450198;28;20045;-74
2023/06/15 06:40:39;;;;;;;3.97;2.65;;;19.70;68.60;;;;;;10442498;28;20029;-74
2023/06/15 06:45:40;;;;;;;4.05;2.63;;;19.80;68.50;;;;;;10449712;28;20025;-74
2023/06/15 06:50:41;;;;;;;3.70;2.40;;;19.90;68.30;;;;;;10448526;28;20032;-74
2023/06/15 06:55:44;;;;;;;4.72;2.67;;;19.90;68.10;;;;;;10436927;28;20052;-74
2023/06/15 07:00:45;;;;;;;5.85;2.78;;;20.00;67.80;;;;;;10444414;28;20017;-72
2023/06/15 07:05:47;;;;;;;4.90;2.33;;;20.10;67.60;;;;;;10438143;28;20662;-71
2023/06/15 07:10:48;;;;;;;4.80;2.85;;;20.10;67.40;;;;;;10453827;28;20507;-72
2023/06/15 07:15:54;;;;;;;5.75;2.22;;;20.30;67.40;;;;;;10438452;28;20036;-72
2023/06/15 07:20:54;;;;;;;4.55;2.83;;;20.30;67.20;;;;;;10437598;28;20104;-71
2023/06/15 07:25:55;;;;;;;5.45;2.75;;;20.40;67.20;;;;;;10439281;28;20041;-72
2023/06/15 07:30:56;;;;;;;6.80;2.70;;;20.30;67.10;;;;;;10443011;28;20028;-72
2023/06/15 07:35:57;;;;;;;6.85;2.90;;;20.50;67.00;;;;;;10445078;28;20102;-71
2023/06/15 07:40:57;;;;;;;5.30;2.88;;;20.50;66.70;;;;;;10443741;28;20136;-72
2023/06/15 07:45:58;;;;;;;6.25;2.70;;;20.60;66.50;;;;;;10436699;28;20524;-71
2023/06/15 07:50:58;;;;;;;4.43;2.45;;;20.80;66.10;;;;;;10445046;28;20032;-72
2023/06/15 07:55:59;;;;;;;5.20;2.45;;;20.70;65.80;;;;;;10435564;28;21008;-72
2023/06/15 08:01:00;;;;;;;4.80;2.60;;;20.90;65.60;;;;;;10442477;28;20043;-71
2023/06/15 08:06:00;;;;;;;5.40;2.50;;;21.00;65.10;;;;;;10421044;28;20025;-72
2023/06/15 08:11:01;;;;;;;3.35;2.25;;;21.00;64.70;;;;;;10437906;28;20037;-71
2023/06/15 08:16:02;;;;;;;4.63;2.58;;;21.20;64.50;;;;;;10441069;28;20037;-72
2023/06/15 08:21:03;;;;;;;5.88;2.53;;;21.20;64.30;;;;;;10447448;28;20077;-72
2023/06/15 08:26:03;;;;;;;5.03;2.70;;;21.30;64.00;;;;;;10444844;28;20041;-72
2023/06/15 08:31:04;;;;;;;7.18;2.95;;;21.50;63.70;;;;;;10446626;28;20021;-72
2023/06/15 08:36:05;;;;;;;6.25;2.55;;;21.50;63.40;;;;;;10441930;28;20547;-72
2023/06/15 08:41:06;;;;;;;4.25;2.65;;;21.60;63.30;;;;;;10439057;28;20572;-72
2023/06/15 08:46:07;;;;;;;5.72;2.55;;;21.80;62.60;;;;;;10445113;28;20063;-72
2023/06/15 08:51:12;;;;;;;6.88;2.60;;;21.90;61.80;;;;;;10449840;28;20108;-72
2023/06/15 08:56:13;;;;;;;3.90;2.38;;;21.80;61.70;;;;;;10445953;28;20412;-72
2023/06/15 09:01:13;;;;;;;5.07;2.40;;;22.10;61.30;;;;;;10440420;28;20062;-72
2023/06/15 09:06:19;;;;;;;4.43;2.67;;;22.10;60.40;;;;;;10446622;28;20412;-72
2023/06/15 09:11:22;;;;;;;4.57;2.20;;;22.20;59.40;;;;;;10438090;28;20057;-72
2023/06/15 09:16:23;;;;;;;2.95;1.92;;;22.30;58.20;;;;;;10439488;28;20033;-72
2023/06/15 09:21:26;;;;;;;3.53;2.40;;;22.40;57.90;;;;;;10441482;28;20041;-71
2023/06/15 09:26:27;;;;;;;8.10;2.60;;;22.40;57.00;;;;;;10440364;28;20399;-73
2023/06/15 09:31:32;;;;;;;2.78;2.00;;;22.50;56.50;;;;;;10443647;28;20036;-73
2023/06/15 09:36:40;;;;;;;4.63;2.05;;;22.50;56.10;;;;;;10443030;28;20606;-73
2023/06/15 09:41:51;;;;;;;;;;;22.60;53.50;;;;;;10447893;28;20036;-72
2023/06/15 09:46:54;;;;;;;2.70;1.90;;;22.70;48.70;;;;;;10444952;28;19908;-73
2023/06/15 09:51:55;;;;;;;2.92;1.92;;;22.80;54.50;;;;;;10433211;28;20087;-73
2023/06/15 09:56:57;;;;;;;4.20;2.10;;;22.90;53.90;;;;;;10441629;28;20021;-74
2023/06/15 10:01:59;;;;;;;3.00;1.98;;;22.90;54.20;;;;;;10446663;28;20104;-74
2023/06/15 10:07:22;;;;;;;5.15;2.28;;;22.90;53.80;;;;;;10448780;28;20362;-73
2023/06/15 10:12:26;;;;;;;5.30;1.73;;;23.10;48.70;;;;;;10446573;28;20423;-73
2023/06/15 10:17:33;;;;;;;3.17;2.00;;;23.10;50.80;;;;;;10455661;28;20511;-72
2023/06/15 10:22:37;;;;;;;5.33;1.93;;;23.10;51.30;;;;;;10446080;28;20065;-72
2023/06/15 10:27:38;;;;;;;2.72;2.00;;;23.30;51.10;;;;;;10442192;28;20044;-72
2023/06/15 10:33:19;;;;;;;5.78;1.70;;;23.40;50.70;;;;;;10452450;28;20420;-74
2023/06/15 10:38:51;;;;;;;4.50;1.92;;;23.40;46.30;;;;;;10457433;28;20017;-72
2023/06/15 10:44:03;;;;;;;4.05;1.90;;;23.40;46.90;;;;;;10454069;28;20027;-73
2023/06/15 10:49:08;;;;;;;2.70;2.03;;;23.50;48.10;;;;;;10454185;28;20421;-73
2023/06/15 10:54:23;;;;;;;5.75;1.90;;;23.60;49.20;;;;;;10444102;28;20495;-73
2023/06/15 10:59:43;;;;;;;3.17;2.33;;;23.70;48.20;;;;;;10445746;28;20024;-73
2023/06/15 11:04:51;;;;;;;3.13;1.88;;;23.70;45.20;;;;;;10429683;28;20094;-74
2023/06/15 11:09:55;;;;;;;4.20;2.15;;;23.80;48.10;;;;;;10443617;28;20021;-73
2023/06/15 11:14:56;;;;;;;2.70;2.03;;;23.80;48.40;;;;;;10443012;28;20022;-72
2023/06/15 11:19:57;;;;;;;4.78;2.10;;;23.90;49.00;;;;;;10440682;28;20025;-73
2023/06/15 11:25:01;;;;;;;3.83;1.80;;;23.90;49.10;;;;;;10433291;28;20204;-71
2023/06/15 11:30:03;;;;;;;3.53;2.22;;;23.90;49.40;;;;;;10434862;28;20491;-73
2023/06/15 11:35:04;;;;;;;3.15;1.85;;;24.00;49.00;;;;;;10446645;28;20032;-72
2023/06/15 11:40:06;;;;;;;4.18;1.90;;;24.10;49.00;;;;;;10441094;28;20273;-73
2023/06/15 11:45:12;;;;;;;3.08;1.85;;;24.20;49.20;;;;;;10433565;28;20021;-71
2023/06/15 11:50:17;;;;;;;5.45;2.58;;;24.30;49.50;;;;;;10437533;28;20017;-71
2023/06/15 11:55:18;;;;;;;5.68;2.25;;;24.40;49.90;;;;;;10433442;28;20079;-71
2023/06/15 12:00:19;;;;;;;3.80;1.88;;;24.40;50.10;;;;;;10442627;28;20035;-69
2023/06/15 12:05:21;;;;;;;3.75;2.47;;;24.40;49.50;;;;;;10436290;28;20392;-73
2023/06/15 12:10:21;;;;;;;4.32;2.28;;;24.50;49.40;;;;;;10438620;28;20025;-73
2023/06/15 12:15:24;;;;;;;3.80;2.10;;;24.50;48.90;;;;;;10444576;28;20032;-74
2023/06/15 12:20:28;;;;;;;4.45;2.20;;;24.60;49.00;;;;;;10440140;28;20453;-72
2023/06/15 12:25:43;;;;;;;5.20;2.53;;;24.70;49.00;;;;;;10446299;28;20476;-73
2023/06/15 12:30:47;;;;;;;5.00;2.25;;;24.70;49.20;;;;;;10437038;28;20177;-73
2023/06/15 12:35:50;;;;;;;5.18;2.20;;;24.90;49.60;;;;;;10435131;28;20409;-75
2023/06/15 12:40:52;;;;;;;3.55;2.15;;;24.90;49.30;;;;;;10443355;28;20283;-73
2023/06/15 12:45:54;;;;;;;2.90;2.13;;;25.00;49.60;;;;;;10447809;28;20020;-75
2023/06/15 12:50:55;;;;;;;3.28;2.03;;;25.10;49.70;;;;;;10448089;28;20079;-73
2023/06/15 12:55:55;;;;;;;3.08;2.35;;;25.20;49.20;;;;;;10436034;28;20104;-74
2023/06/15 13:00:56;;;;;;;4.32;2.50;;;25.20;48.60;;;;;;10438833;28;20025;-74
2023/06/15 13:05:57;;;;;;;6.70;2.00;;;25.40;48.90;;;;;;10441277;28;20108;-75
2023/06/15 13:10:57;;;;;;;3.53;2.67;;;25.60;49.50;;;;;;10433111;28;20037;-75
2023/06/15 13:15:58;;;;;;;4.20;2.40;;;25.80;49.30;;;;;;10445333;28;20075;-72
2023/06/15 13:20:59;;;;;;;3.60;2.25;;;26.00;49.00;;;;;;10442571;28;20028;-74
2023/06/15 13:26:00;;;;;;;3.00;2.35;;;26.20;49.20;;;;;;10425875;28;20037;-75
2023/06/15 13:31:01;;;;;;;4.55;2.45;;;26.30;48.60;;;;;;10442562;28;20105;-75
2023/06/15 13:36:01;;;;;;;4.03;2.33;;;26.30;48.20;;;;;;10444996;28;20026;-74
2023/06/15 13:41:02;;;;;;;3.42;2.05;;;25.90;48.70;;;;;;10437219;28;20444;-73
2023/06/15 13:46:03;;;;;;;6.90;2.47;;;25.90;49.00;;;;;;10441954;28;20032;-72
2023/06/15 13:51:04;;;;;;;5.32;2.30;;;26.10;48.60;;;;;;10441300;28;20036;-72
2023/06/15 13:56:04;;;;;;;7.63;2.22;;;26.20;48.30;;;;;;10453727;28;20032;-71
2023/06/15 14:01:05;;;;;;;5.03;2.33;;;26.50;48.60;;;;;;10449932;28;20021;-70
2023/06/15 14:06:06;;;;;;;4.45;2.30;;;26.60;48.40;;;;;;10448450;28;20025;-71
2023/06/15 14:11:08;;;;;;;3.60;2.20;;;26.70;48.50;;;;;;10439661;28;20134;-71
2023/06/15 14:16:08;;;;;;;6.90;2.58;;;26.60;48.50;;;;;;10451672;28;20411;-72
2023/06/15 14:21:09;;;;;;;3.97;2.30;;;26.20;48.80;;;;;;10450257;28;20074;-70
2023/06/15 14:26:11;;;;;;;3.33;2.35;;;26.20;48.90;;;;;;10454987;28;20504;-73
2023/06/15 14:31:12;;;;;;;3.88;2.35;;;26.60;48.70;;;;;;10446361;28;20100;-70
2023/06/15 14:36:12;;;;;;;3.05;2.63;;;26.80;47.80;;;;;;10446638;28;20488;-71
2023/06/15 14:41:13;;;;;;;3.40;2.50;;;26.90;47.70;;;;;;10451685;28;20013;-71
2023/06/15 14:46:13;;;;;;;3.60;2.20;;;27.10;47.90;;;;;;10440668;28;20025;-71
2023/06/15 14:51:14;;;;;;;4.57;2.60;;;27.30;47.40;;;;;;10449655;28;20029;-72
2023/06/15 14:56:15;;;;;;;3.85;2.40;;;27.40;47.30;;;;;;10447312;28;20036;-70
2023/06/15 15:01:17;;;;;;;7.38;2.80;;;27.60;47.60;;;;;;10440571;28;20484;-71
2023/06/15 15:06:19;;;;;;;6.18;2.38;;;27.90;47.30;;;;;;10445271;28;20561;-70
2023/06/15 15:11:22;;;;;;;3.83;2.60;;;27.70;46.90;;;;;;10444115;28;20095;-71
2023/06/15 15:16:24;;;;;;;4.95;2.58;;;27.50;47.10;;;;;;10439392;28;20025;-73
2023/06/15 15:21:26;;;;;;;9.80;2.88;;;27.10;47.60;;;;;;10455135;28;20016;-72
2023/06/15 15:26:27;;;;;;;5.00;2.78;;;26.80;48.10;;;;;;10440813;28;20431;-73
2023/06/15 15:31:28;;;;;;;4.50;2.70;;;26.70;48.30;;;;;;10451418;28;20409;-73
2023/06/15 15:36:29;;;;;;;3.60;2.70;;;26.60;49.50;;;;;;10445175;28;20021;-73
2023/06/15 15:41:29;;;;;;;7.50;2.92;;;26.80;49.00;;;;;;10445904;28;20021;-73
2023/06/15 15:46:30;;;;;;;4.40;2.60;;;26.90;48.50;;;;;;10443443;28;20036;-71
2023/06/15 15:51:30;;;;;;;4.57;2.60;;;26.80;48.10;;;;;;10457132;28;20013;-72
2023/06/15 15:56:31;;;;;;;5.60;3.05;;;26.80;48.20;;;;;;10446943;28;20028;-73
2023/06/15 16:01:32;;;;;;;4.20;2.90;;;26.80;48.70;;;;;;10435989;28;20301;-74
2023/06/15 16:06:32;;;;;;;5.20;2.95;;;26.70;49.00;;;;;;10444101;28;20033;-73
2023/06/15 16:11:33;;;;;;;5.55;2.65;;;26.50;49.20;;;;;;10444052;28;20025;-72
2023/06/15 16:16:33;;;;;;;7.45;3.15;;;26.20;49.20;;;;;;10434325;28;20255;-72
2023/06/15 16:21:36;;;;;;;4.88;3.22;;;26.10;49.40;;;;;;10443105;28;20155;-73
2023/06/15 16:26:36;;;;;;;5.00;2.85;;;26.10;49.50;;;;;;10436991;28;20037;-73
2023/06/15 16:31:37;;;;;;;7.97;3.30;;;26.00;49.80;;;;;;10446986;28;20504;-72
2023/06/15 16:36:37;;;;;;;10.95;6.28;;;26.00;50.30;;;;;;10445566;28;20037;-72
2023/06/15 16:41:38;;;;;;;5.55;3.45;;;25.70;50.70;;;;;;10436655;28;20044;-70
2023/06/15 16:46:39;;;;;;;6.25;3.17;;;25.50;51.90;;;;;;10436808;28;20059;-71
2023/06/15 16:51:40;;;;;;;4.57;3.10;;;25.30;51.70;;;;;;10438374;28;20036;-70
2023/06/15 16:56:40;;;;;;;7.65;2.85;;;25.20;52.30;;;;;;10434299;28;20036;-73
2023/06/15 17:01:41;;;;;;;4.40;2.88;;;25.20;52.80;;;;;;10448717;28;20447;-72
2023/06/15 17:06:41;;;;;;;5.40;3.22;;;25.20;53.40;;;;;;10456519;28;20279;-73
2023/06/15 17:11:42;;;;;;;5.65;2.65;;;25.20;53.50;;;;;;10440329;28;20025;-74
2023/06/15 17:16:45;;;;;;;4.68;3.10;;;25.20;53.70;;;;;;10435647;28;20025;-74
2023/06/15 17:21:46;;;;;;;10.50;4.53;;;25.20;54.00;;;;;;10443012;28;20017;-73
2023/06/15 17:26:46;;;;;;;4.95;3.08;;;25.10;54.50;;;;;;10433241;28;20481;-72
2023/06/15 17:31:47;;;;;;;4.82;3.13;;;25.00;54.80;;;;;;10442772;28;20067;-72
2023/06/15 17:36:48;;;;;;;5.47;2.78;;;24.90;55.20;;;;;;10423142;28;20044;-72
2023/06/15 17:41:48;;;;;;;4.32;2.80;;;24.80;55.60;;;;;;10441169;28;20423;-72
2023/06/15 17:46:50;;;;;;;4.03;3.20;;;24.70;56.20;;;;;;10437903;28;20025;-73
2023/06/15 17:51:51;;;;;;;10.38;2.88;;;24.60;56.50;;;;;;10433766;28;20021;-72
2023/06/15 17:56:51;;;;;;;4.20;2.55;;;24.60;56.80;;;;;;10437062;28;20025;-72
2023/06/15 18:01:52;;;;;;;4.43;3.10;;;24.50;57.50;;;;;;10439925;28;20033;-71
2023/06/15 18:06:52;;;;;;;5.63;3.28;;;24.40;57.00;;;;;;10444541;28;20036;-72
2023/06/15 18:11:53;;;;;;;5.80;2.80;;;24.20;57.20;;;;;;10436411;28;20040;-72
2023/06/15 18:16:54;;;;;;;3.35;2.78;;;24.10;57.40;;;;;;10437586;28;20558;-72
2023/06/15 18:21:56;;;;;;;3.53;2.70;;;24.10;57.50;;;;;;10441709;28;20021;-72
2023/06/15 18:26:57;;;;;;;4.20;2.50;;;24.00;58.20;;;;;;10440649;28;20017;-72
2023/06/15 18:31:57;;;;;;;6.63;3.00;;;23.90;57.50;;;;;;10446511;28;20511;-72
2023/06/15 18:36:59;;;;;;;9.55;3.95;;;23.80;57.60;;;;;;10448197;28;20021;-72
2023/06/15 18:42:02;;;;;;;4.80;2.40;;;23.70;57.70;;;;;;10441240;28;20023;-72
2023/06/15 18:47:04;;;;;;;6.32;3.15;;;23.70;57.80;;;;;;10443122;28;20606;-73
2023/06/15 18:52:05;;;;;;;4.60;2.97;;;23.60;57.70;;;;;;10449155;28;20032;-72
2023/06/15 18:57:06;;;;;;;4.22;2.55;;;23.50;57.70;;;;;;10452730;28;20016;-73
2023/06/15 19:02:07;;;;;;;4.97;2.70;;;23.40;57.70;;;;;;10450911;28;20044;-72
2023/06/15 19:07:08;;;;;;;7.75;2.90;;;23.30;57.90;;;;;;10452767;28;20115;-72
2023/06/15 19:12:10;;;;;;;6.55;2.53;;;23.20;58.00;;;;;;10448078;28;20117;-72
2023/06/15 19:17:11;;;;;;;7.00;2.33;;;23.10;58.30;;;;;;10447713;28;20037;-72
2023/06/15 19:22:12;;;;;;;3.35;2.40;;;23.00;58.30;;;;;;10439384;28;20388;-72
2023/06/15 19:27:12;;;;;;;4.30;3.35;;;23.00;58.70;;;;;;10446223;28;20044;-72
2023/06/15 19:32:13;;;;;;;4.07;2.35;;;22.90;58.70;;;;;;10446500;28;20163;-72
2023/06/15 19:37:13;;;;;;;3.20;2.50;;;22.90;58.80;;;;;;10451881;28;20071;-72
2023/06/15 19:42:14;;;;;;;5.25;2.90;;;22.70;58.80;;;;;;10444663;28;20596;-73
2023/06/15 19:47:15;;;;;;;4.30;2.72;;;22.70;59.00;;;;;;10433686;28;20171;-72
2023/06/15 19:52:15;;;;;;;5.72;2.75;;;22.60;59.00;;;;;;10435594;28;20386;-72
2023/06/15 19:57:18;;;;;;;4.20;2.78;;;22.50;59.00;;;;;;10448470;28;20024;-72
2023/06/15 20:02:18;;;;;;;6.53;2.85;;;22.40;59.20;;;;;;10456279;28;20013;-71
2023/06/15 20:07:19;;;;;;;4.45;2.55;;;22.50;59.20;;;;;;10442605;28;20033;-71
2023/06/15 20:12:19;;;;;;;5.97;2.85;;;22.40;59.30;;;;;;10450272;28;20264;-71
2023/06/15 20:17:20;;;;;;;10.45;2.58;;;22.40;59.30;;;;;;10453284;28;20032;-73
2023/06/15 20:22:21;;;;;;;3.20;2.20;;;22.30;59.30;;;;;;10443635;28;20031;-73
2023/06/15 20:27:21;;;;;;;4.47;2.85;;;22.10;59.40;;;;;;10445818;28;20040;-71
2023/06/15 20:32:24;;;;;;;3.65;2.30;;;22.00;59.30;;;;;;10436877;28;20039;-70
2023/06/15 20:37:25;;;;;;;4.25;2.30;;;22.00;59.40;;;;;;10436610;28;20569;-68
2023/06/15 20:42:25;;;;;;;4.97;2.63;;;22.10;59.10;;;;;;10436883;28;20112;-68
2023/06/15 20:47:26;;;;;;;3.33;2.70;;;22.40;58.80;;;;;;10443950;28;20271;-68
2023/06/15 20:52:26;;;;;;;3.55;2.28;;;22.60;58.50;;;;;;10438051;28;20086;-68
2023/06/15 20:57:27;;;;;;;6.18;2.15;;;22.70;58.30;;;;;;10443943;28;20036;-69
2023/06/15 21:02:28;;;;;;;4.60;2.40;;;22.90;58.10;;;;;;10442539;28;20729;-68
2023/06/15 21:07:28;;;;;;;4.03;2.55;;;23.00;58.10;;;;;;10442685;28;20075;-68
2023/06/15 21:12:29;;;;;;;4.57;2.70;;;23.00;57.90;;;;;;10433481;28;20021;-68
2023/06/15 21:17:35;;;;;;;3.33;2.10;;;23.10;57.90;;;;;;10435344;28;20013;-68
2023/06/15 21:22:36;;;;;;;6.65;2.55;;;23.10;57.90;;;;;;10438532;28;20079;-68
2023/06/15 21:27:36;;;;;;;3.80;2.33;;;23.50;58.10;;;;;;10428943;28;20032;-69
2023/06/15 21:32:37;;;;;;;3.47;2.35;;;23.20;57.90;;;;;;10434731;28;20110;-69
2023/06/15 21:37:38;;;;;;;5.75;2.50;;;23.20;57.90;;;;;;10435036;28;20021;-70
2023/06/15 21:42:38;;;;;;;4.38;2.78;;;23.20;58.00;;;;;;10424688;28;20033;-70
2023/06/15 21:47:39;;;;;;;3.50;2.75;;;23.20;58.00;;;;;;10436102;28;20048;-70
2023/06/15 21:52:45;;;;;;;3.88;2.65;;;23.10;58.00;;;;;;10425547;28;20033;-69
2023/06/15 21:57:46;;;;;;;4.15;2.30;;;23.10;58.10;;;;;;10436679;28;20132;-69
2023/06/15 22:02:47;;;;;;;3.47;2.40;;;23.10;58.10;;;;;;10431731;28;20126;-70
2023/06/15 22:07:50;;;;;;;5.05;2.50;;;23.10;58.10;;;;;;10442898;28;20508;-69
2023/06/15 22:12:51;;;;;;;3.38;2.42;;;23.10;58.50;;;;;;10434800;28;20309;-69
2023/06/15 22:17:53;;;;;;;3.72;2.13;;;23.10;58.10;;;;;;10444124;28;20430;-70
2023/06/15 22:22:53;;;;;;;4.82;2.60;;;23.10;58.20;;;;;;10448163;28;20025;-69
2023/06/15 22:27:54;;;;;;;4.68;2.60;;;23.10;58.20;;;;;;10440688;28;20037;-69
2023/06/15 22:32:55;;;;;;;4.63;2.75;;;23.00;58.20;;;;;;10446733;28;20012;-70
2023/06/15 22:37:57;;;;;;;3.83;2.15;;;23.00;58.20;;;;;;10443389;28;20017;-69
2023/06/15 22:42:59;;;;;;;3.22;2.30;;;23.00;58.20;;;;;;10441802;28;20032;-70
2023/06/15 22:48:00;;;;;;;4.65;2.30;;;23.00;58.30;;;;;;10441787;28;20021;-69
2023/06/15 22:53:02;;;;;;;5.40;2.33;;;22.90;58.30;;;;;;10446052;28;20025;-69
2023/06/15 22:58:02;;;;;;;3.30;2.67;;;22.90;58.40;;;;;;10444501;28;20052;-69
2023/06/15 23:03:03;;;;;;;3.65;2.53;;;22.90;58.40;;;;;;10446159;28;20112;-70
2023/06/15 23:08:03;;;;;;;4.32;2.63;;;22.90;58.50;;;;;;10437634;28;20496;-69
2023/06/15 23:13:04;;;;;;;3.22;2.38;;;22.80;58.50;;;;;;10437747;28;20511;-69
2023/06/15 23:18:05;;;;;;;4.75;3.10;;;22.80;58.60;;;;;;10436751;28;20120;-69
2023/06/15 23:23:05;;;;;;;5.03;2.58;;;22.70;58.60;;;;;;10451529;28;20031;-69
2023/06/15 23:28:06;;;;;;;2.95;2.53;;;22.70;58.70;;;;;;10444234;28;20037;-70
2023/06/15 23:33:07;;;;;;;5.38;2.33;;;22.70;58.70;;;;;;10441915;28;20025;-69
2023/06/15 23:38:07;;;;;;;4.93;2.53;;;22.70;58.80;;;;;;10450162;28;20400;-69
2023/06/15 23:43:08;;;;;;;3.55;2.83;;;22.60;58.90;;;;;;10443854;28;20025;-69
2023/06/15 23:48:08;;;;;;;3.83;2.78;;;22.60;59.00;;;;;;10444491;28;20269;-69
2023/06/15 23:53:11;;;;;;;4.63;3.20;;;22.60;59.00;;;;;;10445281;28;20552;-70
2023/06/15 23:58:12;;;;;;;3.78;2.70;;;22.50;59.70;;;;;;10440303;28;20013;-69
